createdAt,value
2023-05-21T00:01:46.109Z,18.00
2023-05-21T00:04:16.026Z,19.33
2023-05-21T00:06:43.748Z,18.30
2023-05-21T00:09:13.527Z,19.67
2023-05-21T00:11:41.161Z,20.47
2023-05-21T00:14:08.702Z,17.80
2023-05-21T00:16:36.270Z,18.77
2023-05-21T00:19:03.842Z,18.87
2023-05-21T00:21:31.715Z,21.07
2023-05-21T00:23:59.186Z,19.67
2023-05-21T00:26:26.536Z,19.37
2023-05-21T00:28:57.636Z,21.03
2023-05-21T00:31:25.238Z,22.07
2023-05-21T00:33:52.710Z,22.60
2023-05-21T00:36:23.696Z,21.20
2023-05-21T00:38:52.093Z,26.53
2023-05-21T00:41:19.848Z,22.23
2023-05-21T00:43:47.833Z,22.77
2023-05-21T00:46:18.536Z,23.50
2023-05-21T00:48:47.265Z,22.50
2023-05-21T00:51:15.787Z,21.80
2023-05-21T00:53:44.279Z,20.97
2023-05-21T00:56:11.995Z,19.50
2023-05-21T00:58:40.209Z,19.03
2023-05-21T01:01:14.229Z,18.53
2023-05-21T01:03:42.573Z,22.60
2023-05-21T01:06:11.461Z,21.70
2023-05-21T01:08:41.027Z,22.37
2023-05-21T01:11:09.956Z,21.87
2023-05-21T01:13:40.984Z,22.77
2023-05-21T01:16:09.632Z,21.13
2023-05-21T01:18:43.768Z,22.13
2023-05-21T01:21:17.732Z,20.10
2023-05-21T01:23:45.567Z,21.37
2023-05-21T01:26:13.033Z,21.47
2023-05-21T01:28:40.608Z,21.30
2023-05-21T01:31:22.664Z,21.10
2023-05-21T01:33:54.551Z,22.13
2023-05-21T01:36:26.910Z,22.00
2023-05-21T01:39:04.123Z,21.33
2023-05-21T01:41:38.688Z,22.03
2023-05-21T01:44:08.783Z,22.33
2023-05-21T01:46:37.784Z,20.80
2023-05-21T01:49:07.193Z,19.77
2023-05-21T01:51:35.418Z,19.93
2023-05-21T01:54:03.251Z,20.63
2023-05-21T01:56:33.758Z,20.47
2023-05-21T01:59:01.988Z,20.57
2023-05-21T02:01:30.362Z,20.90
2023-05-21T02:03:58.690Z,20.93
2023-05-21T02:06:26.457Z,22.67
2023-05-21T02:08:55.545Z,22.47
2023-05-21T02:11:23.721Z,21.73
2023-05-21T02:13:51.096Z,22.23
2023-05-21T02:16:19.863Z,21.30
2023-05-21T02:18:48.194Z,21.33
2023-05-21T02:21:15.640Z,21.80
2023-05-21T02:23:43.301Z,20.43
2023-05-21T02:26:10.907Z,20.43
2023-05-21T02:28:39.151Z,23.13
2023-05-21T02:31:06.612Z,21.07
2023-05-21T02:33:34.123Z,21.03
2023-05-21T02:36:01.505Z,19.67
2023-05-21T02:38:28.928Z,19.17
2023-05-21T02:40:56.421Z,19.80
2023-05-21T02:43:24.474Z,19.83
2023-05-21T02:45:52.559Z,20.40
2023-05-21T02:48:21.067Z,18.70
2023-05-21T02:50:48.598Z,20.50
2023-05-21T02:53:16.644Z,20.90
2023-05-21T02:55:44.206Z,17.87
2023-05-21T02:58:13.528Z,21.60
2023-05-21T03:00:41.970Z,20.17
2023-05-21T03:03:09.876Z,18.03
2023-05-21T03:05:37.506Z,19.77
2023-05-21T03:08:05.506Z,21.37
2023-05-21T03:10:32.862Z,19.83
2023-05-21T03:13:00.299Z,21.00
2023-05-21T03:15:33.420Z,18.67
2023-05-21T03:18:01.306Z,21.10
2023-05-21T03:20:29.475Z,21.43
2023-05-21T03:22:56.884Z,20.93
2023-05-21T03:25:25.392Z,19.53
2023-05-21T03:27:53.989Z,21.13
2023-05-21T03:30:40.128Z,19.67
2023-05-21T03:33:27.590Z,23.80
2023-05-21T03:35:56.021Z,24.30
2023-05-21T03:38:25.053Z,21.73
2023-05-21T03:40:52.539Z,21.00
2023-05-21T03:43:20.143Z,20.03
2023-05-21T03:45:47.955Z,18.53
2023-05-21T03:48:33.933Z,17.77
2023-05-21T03:51:02.831Z,19.27
2023-05-21T03:53:30.479Z,19.03
2023-05-21T03:55:57.956Z,18.70
2023-05-21T03:58:26.848Z,17.67
2023-05-21T04:00:54.813Z,17.73
2023-05-21T04:03:22.668Z,16.90
2023-05-21T04:05:50.139Z,18.20
2023-05-21T04:08:17.875Z,16.17
2023-05-21T04:10:45.579Z,16.73
2023-05-21T04:13:13.944Z,16.17
2023-05-21T04:15:44.801Z,15.83
2023-05-21T04:18:13.917Z,16.60
2023-05-21T04:20:41.488Z,17.03
2023-05-21T04:23:09.735Z,16.07
2023-05-21T04:25:38.998Z,15.73
2023-05-21T04:28:07.365Z,15.37
2023-05-21T04:30:35.829Z,16.03
2023-05-21T04:33:04.315Z,14.87
2023-05-21T04:35:35.550Z,15.20
2023-05-21T04:38:05.693Z,14.63
2023-05-21T04:40:36.815Z,13.87
2023-05-21T04:43:04.786Z,14.13
2023-05-21T04:45:32.820Z,14.23
2023-05-21T04:48:01.175Z,14.10
2023-05-21T04:50:34.046Z,13.90
2023-05-21T04:53:03.356Z,13.47
2023-05-21T04:55:30.893Z,13.60
2023-05-21T04:57:58.268Z,13.67
2023-05-21T05:00:26.256Z,13.50
2023-05-21T05:02:53.926Z,13.73
2023-05-21T05:05:22.181Z,13.83
2023-05-21T05:07:49.528Z,14.70
2023-05-21T05:10:16.929Z,13.93
2023-05-21T05:12:44.757Z,15.37
2023-05-21T05:15:12.109Z,15.20
2023-05-21T05:17:39.970Z,14.57
2023-05-21T05:20:08.635Z,14.47
2023-05-21T05:22:36.281Z,15.40
2023-05-21T05:25:05.260Z,15.20
2023-05-21T05:27:32.649Z,15.40
2023-05-21T05:30:00.213Z,15.60
2023-05-21T05:32:27.963Z,15.97
2023-05-21T05:34:56.196Z,14.77
2023-05-21T05:37:24.205Z,14.90
2023-05-21T05:39:52.192Z,15.43
2023-05-21T05:42:19.553Z,15.63
2023-05-21T05:44:47.036Z,16.40
2023-05-21T05:47:15.026Z,15.80
2023-05-21T05:49:42.665Z,14.77
2023-05-21T05:52:11.186Z,15.23
2023-05-21T05:54:39.332Z,15.77
2023-05-21T05:57:06.998Z,14.53
2023-05-21T05:59:35.325Z,15.57
2023-05-21T06:02:03.776Z,14.87
2023-05-21T06:04:31.996Z,15.60
2023-05-21T06:07:00.708Z,14.30
2023-05-21T06:09:28.316Z,14.40
2023-05-21T06:11:55.920Z,13.20
2023-05-21T06:14:23.276Z,12.87
2023-05-21T06:16:50.830Z,13.30
2023-05-21T06:19:19.143Z,13.17
2023-05-21T06:21:46.748Z,13.93
2023-05-21T06:24:14.264Z,12.70
2023-05-21T06:26:42.164Z,13.90
2023-05-21T06:29:09.642Z,13.50
2023-05-21T06:31:37.234Z,13.27
2023-05-21T06:34:07.548Z,13.33
2023-05-21T06:36:35.198Z,11.67
2023-05-21T06:39:03.700Z,12.50
2023-05-21T06:41:32.028Z,12.87
2023-05-21T06:44:04.067Z,13.33
2023-05-21T06:46:50.579Z,12.70
2023-05-21T06:49:19.802Z,12.17
2023-05-21T06:51:47.241Z,13.17
2023-05-21T06:54:15.232Z,13.33
2023-05-21T06:56:43.407Z,14.17
2023-05-21T06:59:11.133Z,14.23
2023-05-21T07:01:42.526Z,13.53
2023-05-21T07:04:11.326Z,14.60
2023-05-21T07:06:39.898Z,13.97
2023-05-21T07:09:07.288Z,14.27
2023-05-21T07:11:37.201Z,13.90
2023-05-21T07:14:05.911Z,11.73
2023-05-21T07:16:36.001Z,10.37
2023-05-21T07:19:03.750Z,9.53
2023-05-21T07:21:31.247Z,8.90
2023-05-21T07:23:59.274Z,9.10
2023-05-21T07:26:26.605Z,9.00
2023-05-21T07:28:54.374Z,8.80
2023-05-21T07:31:21.822Z,9.10
2023-05-21T07:33:51.949Z,9.40
2023-05-21T07:36:23.490Z,8.90
2023-05-21T07:38:51.324Z,9.93
2023-05-21T07:41:18.932Z,11.17
2023-05-21T07:43:47.941Z,9.77
2023-05-21T07:46:16.407Z,9.60
2023-05-21T07:48:44.866Z,8.90
2023-05-21T07:51:12.856Z,10.63
2023-05-21T07:53:40.299Z,9.70
2023-05-21T07:56:11.187Z,9.43
2023-05-21T07:58:39.632Z,9.53
2023-05-21T08:01:07.478Z,9.23
2023-05-21T08:03:35.290Z,9.47
2023-05-21T08:06:03.325Z,9.27
2023-05-21T08:08:30.861Z,11.07
2023-05-21T08:10:58.990Z,12.17
2023-05-21T08:13:28.029Z,8.73
2023-05-21T08:15:56.092Z,8.20
2023-05-21T08:18:24.111Z,8.40
2023-05-21T08:20:54.312Z,9.13
2023-05-21T08:23:23.182Z,10.40
2023-05-21T08:25:54.471Z,8.77
2023-05-21T08:28:25.109Z,10.20
2023-05-21T08:30:53.319Z,10.53
2023-05-21T08:33:23.043Z,8.87
2023-05-21T08:35:50.510Z,8.50
2023-05-21T08:38:22.668Z,8.97
2023-05-21T08:40:59.999Z,7.93
2023-05-21T08:43:28.905Z,8.07
2023-05-21T08:45:59.228Z,8.80
2023-05-21T08:48:31.734Z,8.30
2023-05-21T08:51:01.230Z,8.60
2023-05-21T08:53:35.904Z,8.03
2023-05-21T08:56:07.045Z,7.60
2023-05-21T08:58:49.461Z,8.87
2023-05-21T09:01:21.895Z,7.17
2023-05-21T09:04:12.234Z,7.40
2023-05-21T09:06:48.260Z,7.07
2023-05-21T09:09:33.846Z,8.03
2023-05-21T09:12:01.681Z,7.63
2023-05-21T09:14:29.632Z,7.90
2023-05-21T09:17:03.236Z,6.47
2023-05-21T09:19:32.341Z,8.13
2023-05-21T09:22:04.491Z,7.73
2023-05-21T09:24:36.089Z,7.20
2023-05-21T09:27:07.277Z,7.00
2023-05-21T09:29:35.479Z,7.40
2023-05-21T09:32:07.828Z,6.93
2023-05-21T09:34:37.517Z,6.77
2023-05-21T09:37:16.508Z,7.00
2023-05-21T09:39:54.051Z,6.60
2023-05-21T09:42:22.119Z,6.80
2023-05-21T09:44:50.323Z,6.60
2023-05-21T09:47:20.484Z,6.50
2023-05-21T09:49:49.048Z,6.83
2023-05-21T09:52:24.929Z,6.30
2023-05-21T09:54:53.317Z,6.60
2023-05-21T09:57:26.688Z,6.40
2023-05-21T09:59:54.263Z,6.07
2023-05-21T10:02:23.182Z,7.03
2023-05-21T10:04:51.993Z,6.87
2023-05-21T10:07:25.809Z,6.23
2023-05-21T10:09:58.256Z,6.27
2023-05-21T10:12:27.611Z,6.40
2023-05-21T10:15:03.867Z,6.60
2023-05-21T10:17:31.488Z,5.60
2023-05-21T10:19:59.996Z,5.93
2023-05-21T10:22:28.203Z,6.23
2023-05-21T10:24:57.593Z,5.67
2023-05-21T10:27:26.213Z,6.17
2023-05-21T10:29:57.137Z,5.73
2023-05-21T10:32:26.683Z,6.10
2023-05-21T10:34:54.548Z,6.30
2023-05-21T10:37:25.145Z,5.83
2023-05-21T10:39:52.571Z,5.50
2023-05-21T10:42:19.879Z,5.43
2023-05-21T10:45:19.510Z,6.57
2023-05-21T10:48:05.323Z,5.73
2023-05-21T10:50:51.495Z,6.50
2023-05-21T10:53:52.275Z,6.90
2023-05-21T10:56:36.556Z,6.27
2023-05-21T10:59:22.237Z,6.17
2023-05-21T11:01:53.035Z,5.90
2023-05-21T11:04:27.900Z,6.10
2023-05-21T11:06:58.647Z,6.17
2023-05-21T11:09:27.183Z,6.23
2023-05-21T11:12:04.724Z,6.00
2023-05-21T11:14:36.758Z,6.20
2023-05-21T11:17:14.207Z,6.60
2023-05-21T11:19:43.881Z,6.10
2023-05-21T11:22:25.645Z,6.20
2023-05-21T11:24:54.897Z,5.23
2023-05-21T11:27:40.253Z,6.13
2023-05-21T11:30:09.631Z,6.20
2023-05-21T11:32:57.665Z,6.63
2023-05-21T11:35:25.452Z,6.23
2023-05-21T11:37:54.370Z,6.13
2023-05-21T11:40:26.817Z,6.30
2023-05-21T11:42:55.888Z,5.90
2023-05-21T11:45:28.439Z,6.50
2023-05-21T11:47:56.590Z,5.90
2023-05-21T11:50:24.469Z,6.03
2023-05-21T11:52:52.919Z,6.00
2023-05-21T11:55:25.926Z,6.17
2023-05-21T11:57:55.254Z,6.70
2023-05-21T12:00:23.075Z,5.77
2023-05-21T12:02:52.319Z,6.10
2023-05-21T12:05:19.826Z,6.60
2023-05-21T12:07:49.308Z,6.00
2023-05-21T12:10:16.990Z,6.37
2023-05-21T12:12:54.719Z,6.70
2023-05-21T12:15:24.566Z,6.33
2023-05-21T12:17:53.203Z,6.03
2023-05-21T12:20:20.966Z,6.27
2023-05-21T12:22:51.499Z,6.20
2023-05-21T12:25:20.554Z,6.30
2023-05-21T12:27:50.358Z,6.27
2023-05-21T12:30:18.000Z,6.10
2023-05-21T12:32:45.544Z,6.40
2023-05-21T12:35:23.661Z,6.17
2023-05-21T12:37:51.977Z,5.77
2023-05-21T12:40:20.312Z,6.17
2023-05-21T12:42:48.201Z,5.70
2023-05-21T12:45:18.528Z,6.17
2023-05-21T12:47:49.502Z,5.50
2023-05-21T12:50:21.089Z,6.17
2023-05-21T12:52:48.608Z,6.00
2023-05-21T12:55:17.255Z,6.10
2023-05-21T12:57:44.598Z,5.83
2023-05-21T13:00:12.656Z,5.67
2023-05-21T13:02:41.768Z,6.13
2023-05-21T13:05:11.252Z,5.77
2023-05-21T13:07:39.968Z,5.73
2023-05-21T13:10:10.538Z,5.63
2023-05-21T13:12:38.072Z,5.87
2023-05-21T13:15:08.179Z,5.43
2023-05-21T13:17:35.873Z,6.53
2023-05-21T13:20:08.240Z,6.10
2023-05-21T13:22:39.072Z,5.70
2023-05-21T13:25:09.283Z,5.45
2023-05-21T13:27:36.776Z,5.63
2023-05-21T13:30:05.989Z,5.87
2023-05-21T13:32:33.449Z,5.47
2023-05-21T13:35:01.020Z,5.60
2023-05-21T13:37:28.750Z,7.17
2023-05-21T13:39:56.172Z,6.93
2023-05-21T13:42:23.892Z,7.57
2023-05-21T13:44:51.289Z,5.10
2023-05-21T13:47:18.591Z,5.17
2023-05-21T13:49:45.911Z,5.27
2023-05-21T13:52:13.491Z,5.30
2023-05-21T13:54:41.560Z,4.80
2023-05-21T13:57:09.188Z,5.70
2023-05-21T13:59:36.770Z,5.93
2023-05-21T14:02:04.302Z,5.43
2023-05-21T14:04:31.786Z,6.57
2023-05-21T14:06:59.101Z,5.13
2023-05-21T14:09:27.443Z,5.70
2023-05-21T14:11:56.855Z,5.80
2023-05-21T14:14:24.370Z,5.17
2023-05-21T14:16:52.317Z,5.23
2023-05-21T14:19:19.920Z,4.87
2023-05-21T14:21:47.274Z,5.30
2023-05-21T14:24:14.611Z,4.88
2023-05-21T14:26:41.987Z,4.90
2023-05-21T14:29:09.591Z,5.10
2023-05-21T14:31:37.833Z,5.37
2023-05-21T14:34:07.027Z,4.50
2023-05-21T14:36:34.805Z,5.67
2023-05-21T14:39:02.873Z,5.50
2023-05-21T14:41:31.112Z,5.38
2023-05-21T14:43:58.842Z,5.30
2023-05-21T14:46:26.737Z,5.13
2023-05-21T14:48:55.461Z,5.15
2023-05-21T14:51:23.299Z,4.80
2023-05-21T14:53:51.861Z,5.20
2023-05-21T14:56:21.677Z,5.30
2023-05-21T14:58:49.433Z,5.37
2023-05-21T15:01:16.910Z,5.03
2023-05-21T15:03:44.432Z,5.47
2023-05-21T15:06:12.142Z,5.05
2023-05-21T15:08:39.442Z,5.30
2023-05-21T15:11:09.781Z,4.93
2023-05-21T15:13:37.954Z,5.40
2023-05-21T15:16:05.806Z,5.57
2023-05-21T15:18:33.267Z,4.90
2023-05-21T15:21:00.704Z,5.70
2023-05-21T15:23:28.736Z,5.20
2023-05-21T15:25:56.151Z,5.37
2023-05-21T15:28:23.447Z,5.40
2023-05-21T15:30:50.949Z,5.03
2023-05-21T15:33:18.500Z,4.73
2023-05-21T15:35:46.223Z,5.47
2023-05-21T15:38:13.792Z,5.63
2023-05-21T15:40:44.270Z,5.47
2023-05-21T15:43:11.659Z,5.03
2023-05-21T15:45:39.489Z,4.93
2023-05-21T15:48:08.177Z,5.20
2023-05-21T15:50:35.862Z,5.73
2023-05-21T15:53:04.550Z,4.90
2023-05-21T15:55:33.486Z,5.30
2023-05-21T15:58:02.471Z,5.17
2023-05-21T16:00:30.330Z,5.00
2023-05-21T16:02:57.798Z,4.50
2023-05-21T16:05:26.831Z,4.63
2023-05-21T16:07:54.203Z,4.93
2023-05-21T16:10:21.732Z,4.87
2023-05-21T16:12:49.334Z,5.10
2023-05-21T16:15:16.880Z,5.10
2023-05-21T16:17:44.199Z,4.77
2023-05-21T16:20:12.215Z,4.80
2023-05-21T16:22:40.663Z,4.80
2023-05-21T16:25:08.492Z,5.00
2023-05-21T16:27:36.388Z,4.87
2023-05-21T16:30:04.481Z,5.33
2023-05-21T16:32:31.826Z,4.77
2023-05-21T16:34:59.465Z,4.73
2023-05-21T16:37:28.582Z,4.63
2023-05-21T16:39:55.943Z,4.67
2023-05-21T16:42:23.835Z,5.13
2023-05-21T16:44:51.240Z,5.00
2023-05-21T16:47:18.669Z,4.80
2023-05-21T16:49:46.253Z,4.73
2023-05-21T16:52:13.680Z,5.03
2023-05-21T16:54:43.531Z,5.33
2023-05-21T16:57:12.365Z,4.90
2023-05-21T16:59:39.843Z,5.07
2023-05-21T17:02:10.739Z,8.30
2023-05-21T17:04:38.501Z,5.80
2023-05-21T17:07:06.155Z,5.23
2023-05-21T17:09:33.725Z,5.23
2023-05-21T17:12:01.127Z,5.20
2023-05-21T17:16:59.830Z,5.37
2023-05-21T17:19:27.308Z,5.07
2023-05-21T17:21:55.977Z,5.40
2023-05-21T17:24:23.577Z,4.80
2023-05-21T17:26:51.176Z,5.17
2023-05-21T17:29:18.864Z,5.20
2023-05-21T17:31:46.657Z,5.33
2023-05-21T17:34:14.151Z,5.03
2023-05-21T17:36:41.622Z,5.30
2023-05-21T17:39:08.965Z,5.03
2023-05-21T17:41:36.712Z,4.90
2023-05-21T17:44:04.164Z,5.20
2023-05-21T17:46:31.858Z,5.00
2023-05-21T17:48:59.865Z,5.37
2023-05-21T17:51:27.468Z,5.57
2023-05-21T17:53:55.839Z,5.20
2023-05-21T17:56:23.213Z,5.13
2023-05-21T17:58:51.206Z,5.63
2023-05-21T18:01:19.102Z,5.80
2023-05-21T18:03:46.719Z,5.27
2023-05-21T18:06:14.130Z,5.30
2023-05-21T18:08:41.614Z,5.50
2023-05-21T18:11:09.039Z,5.63
2023-05-21T18:13:36.398Z,5.50
2023-05-21T18:16:03.864Z,5.53
2023-05-21T18:18:32.610Z,6.00
2023-05-21T18:21:00.284Z,5.73
2023-05-21T18:23:28.790Z,5.40
2023-05-21T18:25:56.268Z,5.33
2023-05-21T18:28:23.741Z,5.70
2023-05-21T18:30:51.177Z,5.73
2023-05-21T18:33:18.738Z,5.50
2023-05-21T18:35:46.320Z,5.50
2023-05-21T18:38:13.931Z,5.57
2023-05-21T18:40:41.298Z,4.83
2023-05-21T18:43:11.209Z,5.50
2023-05-21T18:45:38.681Z,6.03
2023-05-21T18:48:06.484Z,5.73
2023-05-21T18:50:35.185Z,6.07
2023-05-21T18:53:02.900Z,6.40
2023-05-21T18:55:30.495Z,5.53
2023-05-21T18:57:57.895Z,5.97
2023-05-21T19:00:25.596Z,6.10
2023-05-21T19:02:53.518Z,5.60
2023-05-21T19:05:21.543Z,5.97
2023-05-21T19:07:49.449Z,5.83
2023-05-21T19:10:17.501Z,6.63
2023-05-21T19:12:46.173Z,6.57
2023-05-21T19:15:13.817Z,6.23
2023-05-21T19:17:41.376Z,6.20
2023-05-21T19:20:09.651Z,6.90
2023-05-21T19:22:37.377Z,7.07
2023-05-21T19:25:05.088Z,6.80
2023-05-21T19:27:32.612Z,6.20
2023-05-21T19:30:00.341Z,6.37
2023-05-21T19:32:28.119Z,6.80
2023-05-21T19:34:57.371Z,7.00
2023-05-21T19:37:24.731Z,7.03
2023-05-21T19:39:52.072Z,6.87
2023-05-21T19:42:21.366Z,7.10
2023-05-21T19:44:48.840Z,6.87
2023-05-21T19:47:16.296Z,7.17
2023-05-21T19:49:43.578Z,7.20
2023-05-21T19:52:12.202Z,7.00
2023-05-21T19:54:39.672Z,6.87
2023-05-21T19:57:07.365Z,6.87
2023-05-21T19:59:35.360Z,7.17
2023-05-21T20:02:02.752Z,6.97
2023-05-21T20:04:30.019Z,6.80
2023-05-21T20:06:57.500Z,6.53
2023-05-21T20:09:24.814Z,6.60
2023-05-21T20:11:52.271Z,7.00
2023-05-21T20:14:19.668Z,6.57
2023-05-21T20:16:47.373Z,6.70
2023-05-21T20:19:15.452Z,7.07
2023-05-21T20:21:43.326Z,7.53
2023-05-21T20:24:12.257Z,6.07
2023-05-21T20:26:40.337Z,7.10
2023-05-21T20:29:08.212Z,7.43
2023-05-21T20:31:36.026Z,7.67
2023-05-21T20:34:07.796Z,7.17
2023-05-21T20:36:36.333Z,7.13
2023-05-21T20:39:04.130Z,7.33
2023-05-21T20:41:37.934Z,7.40
2023-05-21T20:44:06.191Z,7.27
2023-05-21T20:46:38.162Z,7.30
2023-05-21T20:49:06.210Z,7.33
2023-05-21T20:51:34.033Z,7.30
2023-05-21T20:54:01.539Z,6.83
2023-05-21T20:56:40.825Z,7.03
2023-05-21T20:59:11.224Z,6.87
2023-05-21T21:01:40.768Z,7.77
2023-05-21T21:04:09.115Z,7.73
2023-05-21T21:06:38.296Z,8.63
2023-05-21T21:09:06.150Z,8.07
2023-05-21T21:11:33.541Z,7.87
2023-05-21T21:14:02.541Z,8.13
2023-05-21T21:16:30.084Z,9.37
2023-05-21T21:18:57.549Z,9.47
2023-05-21T21:21:25.142Z,9.00
2023-05-21T21:23:52.537Z,8.07
2023-05-21T21:26:20.101Z,8.77
2023-05-21T21:28:47.583Z,8.87
2023-05-21T21:31:17.571Z,8.90
2023-05-21T21:33:44.956Z,9.23
2023-05-21T21:36:12.514Z,9.37
2023-05-21T21:38:39.991Z,9.03
2023-05-21T21:41:07.813Z,8.43
2023-05-21T21:43:35.598Z,9.07
2023-05-21T21:46:03.826Z,8.70
2023-05-21T21:48:31.340Z,8.67
2023-05-21T21:50:59.023Z,8.47
2023-05-21T21:53:26.514Z,8.70
2023-05-21T21:55:55.451Z,9.47
2023-05-21T21:58:23.187Z,10.23
2023-05-21T22:00:50.630Z,9.40
2023-05-21T22:03:18.052Z,9.73
2023-05-21T22:05:46.133Z,9.60
2023-05-21T22:08:13.548Z,8.97
2023-05-21T22:10:41.124Z,8.93
2023-05-21T22:13:08.724Z,8.47
2023-05-21T22:15:36.130Z,9.30
2023-05-21T22:18:03.975Z,9.27
2023-05-21T22:20:33.170Z,9.50
2023-05-21T22:23:01.033Z,8.97
2023-05-21T22:25:28.305Z,10.40
2023-05-21T22:27:55.705Z,9.43
2023-05-21T22:30:23.040Z,9.43
2023-05-21T22:32:50.484Z,9.27
2023-05-21T22:35:18.650Z,10.03
2023-05-21T22:37:47.008Z,9.70
2023-05-21T22:40:14.427Z,9.93
2023-05-21T22:42:42.248Z,9.17
2023-05-21T22:45:10.100Z,9.20
2023-05-21T22:47:39.685Z,9.20
2023-05-21T22:50:08.248Z,10.10
2023-05-21T22:52:36.036Z,10.43
2023-05-21T22:55:03.925Z,10.27
2023-05-21T22:57:31.292Z,10.97
2023-05-21T22:59:58.634Z,10.67
2023-05-21T23:02:26.302Z,11.13
2023-05-21T23:04:54.060Z,10.50
2023-05-21T23:07:21.655Z,10.57
2023-05-21T23:09:51.753Z,10.10
2023-05-21T23:12:19.169Z,11.27
2023-05-21T23:14:47.570Z,10.63
2023-05-21T23:17:14.876Z,11.03
2023-05-21T23:19:42.717Z,10.67
2023-05-21T23:22:10.062Z,10.83
2023-05-21T23:24:39.079Z,11.00
2023-05-21T23:27:06.503Z,10.47
2023-05-21T23:29:34.278Z,9.93
2023-05-21T23:32:01.955Z,10.00
2023-05-21T23:34:29.500Z,10.57
2023-05-21T23:36:59.440Z,10.50
2023-05-21T23:39:28.858Z,11.33
2023-05-21T23:41:56.456Z,11.03
2023-05-21T23:44:24.183Z,10.87
2023-05-21T23:46:52.038Z,10.83
2023-05-21T23:49:19.523Z,12.13
2023-05-21T23:51:50.709Z,11.47
2023-05-21T23:54:18.396Z,11.60
2023-05-21T23:56:46.347Z,11.50
2023-05-21T23:59:15.086Z,11.47
